CheckWX is a tool to help pilots better visualize weather data.  It is not intended as a substitute for an official pre-flight weather briefing.

12:23:45 UTC

UGSB TAF
Batumi International Airport
Batumi, Georgia
TAF UGSB 221100Z 2212/2312 21007KT 9999 -RA SCT020 BKN040 TX11/2311Z TN06/2302Z TEMPO 2212/2217 23017KT 4500 SHRA SCT010 BKN020CB BECMG 2216/2219 14010KT FEW025 BKN100 BECMG 2306/2308 30007KT

Mar-22@
12:00 UTC

Mar-22 @ 12:00 UTC

Mar-22@
16:00 UTC

Mar-22 @ 16:00 UTC

TAF UGSB 221100Z 2212/2312 21007KT 9999 -RA SCT020 BKN040 TX11/2311Z TN06/2302Z
Wind
  • 210° at 7 KTS
Conditions
Light Rain
Cloud Levels
  • Scattered at 2,000' AGL
  • Broken at 4,000' AGL

Mar-22@
12:00 UTC

Mar-22 @ 12:00 UTC

Mar-22@
17:00 UTC

Mar-22 @ 17:00 UTC

TEMPO 2212/2217 23017KT 4500 SHRA SCT010 BKN020CB

Temporary

Temporary Changes expected for less than half the time period

Wind
  • 230° at 17 KTS
Conditions
Rain
Cloud Levels
  • Scattered at 1,000' AGL
  • Broken at 2,000' AGL

Mar-22@
16:00 UTC

Mar-22 @ 16:00 UTC

Mar-23@
06:00 UTC

Mar-23 @ 06:00 UTC

BECMG 2216/2219 14010KT FEW025 BKN100

Becoming

Becoming Conditions expected by Fri, Mar 22, 2019 @ 19:00 UTC

Wind
  • 140° at 10 KTS
Conditions
Light Rain
Cloud Levels
  • Few at 2,500' AGL
  • Broken at 10,000' AGL

Mar-23@
06:00 UTC

Mar-23 @ 06:00 UTC

Mar-23@
12:00 UTC

Mar-23 @ 12:00 UTC

BECMG 2306/2308 30007KT

Becoming

Becoming Conditions expected by Sat, Mar 23, 2019 @ 08:00 UTC

Wind
  • 300° at 7 KTS
Conditions
Light Rain
Cloud Levels
  • Few at 2,500' AGL
  • Broken at 10,000' AGL